Time;durP1;ratioP1;P1;durP2;ratioP2;P2;SDS_P1;SDS_P2;PMS_P1;PMS_P2;Temp;Humidity;BMP_temperature;BMP_pressure;BME280_temperature;BME280_humidity;BME280_pressure;Samples;Min_cycle;Max_cycle;Signal;HPM_P1;HPM_P2
2023/06/17 00:04:13;;;;;;;7.00;5.50;;;;;;;17.17;49.46;100365.56;10164065;29;20067;-77
2023/06/17 00:09:16;;;;;;;7.57;5.68;;;;;;;17.02;49.74;100358.00;10160344;29;20534;-77
2023/06/17 00:14:21;;;;;;;5.75;5.07;;;;;;;16.65;50.91;100349.44;10149926;29;20047;-76
2023/06/17 00:19:24;;;;;;;8.05;5.88;;;;;;;16.55;50.74;100339.59;10157334;29;20054;-77
2023/06/17 00:24:27;;;;;;;6.72;5.15;;;;;;;16.62;51.51;100350.66;10151251;29;21572;-75
2023/06/17 00:29:31;;;;;;;6.82;5.10;;;;;;;16.25;51.87;100350.97;10155250;29;20101;-76
2023/06/17 00:34:34;;;;;;;5.38;4.88;;;;;;;16.01;51.71;100344.41;10160929;29;20443;-77
2023/06/17 00:39:37;;;;;;;8.30;5.97;;;;;;;16.15;51.59;100332.97;10156673;29;20054;-77
2023/06/17 00:44:41;;;;;;;8.63;5.75;;;;;;;16.15;51.01;100341.09;10155918;29;20062;-77
2023/06/17 00:49:46;;;;;;;7.93;5.22;;;;;;;16.28;50.91;100337.13;10156110;29;20047;-77
2023/06/17 00:54:49;;;;;;;6.30;5.70;;;;;;;16.15;50.30;100335.69;10154539;29;20044;-77
2023/06/17 00:59:53;;;;;;;10.93;5.90;;;;;;;16.12;50.40;100346.81;10149177;29;20074;-76
2023/06/17 01:04:57;;;;;;;7.35;5.72;;;;;;;16.16;50.83;100344.66;10156760;29;20056;-76
2023/06/17 01:10:06;;;;;;;5.95;5.35;;;;;;;16.09;50.74;100336.31;10153739;29;20071;-75
2023/06/17 01:15:15;;;;;;;7.20;5.72;;;;;;;16.08;51.54;100333.78;10156139;29;20052;-76
2023/06/17 01:20:19;;;;;;;5.97;5.45;;;;;;;15.74;51.90;100328.31;10169759;28;20056;-76
2023/06/17 01:25:29;;;;;;;6.60;6.00;;;;;;;15.79;51.71;100334.13;10149872;29;20051;-75
2023/06/17 01:30:32;;;;;;;6.75;6.15;;;;;;;15.79;51.80;100329.53;10145149;29;20084;-75
2023/06/17 01:35:39;;;;;;;9.75;6.55;;;;;;;15.78;51.96;100322.44;10146135;29;20047;-77
2023/06/17 01:40:45;;;;;;;6.30;5.50;;;;;;;14.33;55.52;100333.38;10154205;29;20456;-76
2023/06/17 01:45:49;;;;;;;8.38;5.78;;;;;;;14.64;55.18;100333.06;10158171;29;20054;-76
2023/06/17 01:50:52;;;;;;;11.20;6.40;;;;;;;14.88;55.42;100337.06;10159884;29;20047;-75
2023/06/17 01:55:57;;;;;;;8.75;6.57;;;;;;;14.84;55.28;100331.13;10159403;29;20127;-76
2023/06/17 02:01:00;;;;;;;8.18;6.82;;;;;;;14.69;55.26;100338.03;10148574;29;21202;-77
2023/06/17 02:06:03;;;;;;;9.35;6.50;;;;;;;14.36;56.85;100337.63;10148731;29;20063;-76
2023/06/17 02:11:08;;;;;;;8.85;7.55;;;;;;;14.55;57.38;100334.00;10148476;29;20129;-76
2023/06/17 02:16:13;;;;;;;9.93;7.25;;;;;;;14.78;56.68;100335.28;10158195;29;20059;-76
2023/06/17 02:21:17;;;;;;;10.38;7.82;;;;;;;14.89;55.50;100331.50;10159485;29;20052;-75
2023/06/17 02:26:22;;;;;;;11.82;7.00;;;;;;;14.58;55.91;100317.47;10159066;29;20059;-75
2023/06/17 02:31:27;;;;;;;8.60;7.60;;;;;;;14.72;56.12;100321.50;10154605;29;20051;-75
2023/06/17 02:36:31;;;;;;;9.70;7.90;;;;;;;14.38;55.94;100323.00;10156175;29;22140;-75
2023/06/17 02:41:35;;;;;;;9.32;7.97;;;;;;;14.55;55.55;100310.50;10149135;29;20052;-76
2023/06/17 02:46:38;;;;;;;9.48;7.00;;;;;;;14.43;56.56;100300.94;10155462;29;20424;-76
2023/06/17 02:51:41;;;;;;;8.05;7.25;;;;;;;14.55;56.67;100307.81;10161067;29;20052;-75
2023/06/17 02:56:46;;;;;;;9.35;7.30;;;;;;;14.47;55.78;100305.00;10160153;29;20051;-76
2023/06/17 03:01:49;;;;;;;9.75;8.35;;;;;;;14.67;54.80;100305.72;10161959;29;20071;-76
2023/06/17 03:06:52;;;;;;;8.63;7.47;;;;;;;14.01;56.97;100308.63;10163244;29;20533;-76
2023/06/17 03:11:57;;;;;;;11.13;7.47;;;;;;;13.88;57.96;100292.78;10148475;29;20047;-75
2023/06/17 03:17:00;;;;;;;12.45;7.57;;;;;;;14.19;56.63;100297.91;10156882;28;20190;-76
2023/06/17 03:22:05;;;;;;;9.95;6.90;;;;;;;13.89;56.68;100297.19;10158042;29;20055;-75
2023/06/17 03:27:13;;;;;;;10.15;7.20;;;;;;;14.05;56.26;100291.16;10160347;29;20052;-76
2023/06/17 03:32:16;;;;;;;10.88;6.82;;;;;;;13.67;57.67;100293.84;10161657;29;20060;-73
2023/06/17 03:37:21;;;;;;;10.20;7.53;;;;;;;13.47;58.56;100298.44;10158062;29;20048;-76
2023/06/17 03:42:25;;;;;;;8.77;7.88;;;;;;;13.90;57.63;100290.75;10155793;29;20044;-76
2023/06/17 03:47:29;;;;;;;12.55;8.57;;;;;;;14.02;57.66;100291.44;10157881;29;20111;-75
2023/06/17 03:52:32;;;;;;;13.00;8.75;;;;;;;14.23;57.15;100291.19;10149413;29;20048;-75
2023/06/17 03:57:37;;;;;;;8.90;7.90;;;;;;;14.31;56.65;100284.03;10156197;29;20059;-75
2023/06/17 04:02:41;;;;;;;13.02;8.07;;;;;;;14.34;56.51;100296.38;10156587;29;20524;-76
2023/06/17 04:07:44;;;;;;;11.45;8.23;;;;;;;14.62;56.37;100297.25;10163288;29;20051;-75
2023/06/17 04:12:48;;;;;;;8.70;7.80;;;;;;;14.92;55.39;100289.75;10164412;29;20043;-75
2023/06/17 04:17:51;;;;;;;9.57;7.43;;;;;;;15.02;55.16;100293.22;10160696;29;20584;-75
2023/06/17 04:22:56;;;;;;;10.60;8.70;;;;;;;14.78;55.07;100285.72;10155141;29;20052;-74
2023/06/17 04:28:01;;;;;;;9.45;8.50;;;;;;;14.65;56.22;100280.72;10154564;29;20065;-75
2023/06/17 04:33:11;;;;;;;11.45;8.32;;;;;;;14.74;56.17;100277.09;10160127;29;20520;-75
2023/06/17 04:38:15;;;;;;;11.02;8.50;;;;;;;14.76;56.38;100276.94;10158499;29;20154;-75
2023/06/17 04:43:22;;;;;;;10.65;8.23;;;;;;;14.51;57.18;100276.69;10162466;29;20214;-75
2023/06/17 04:48:28;;;;;;;12.93;9.93;;;;;;;14.59;57.56;100274.09;10155197;29;20059;-76
2023/06/17 04:53:31;;;;;;;9.57;8.55;;;;;;;14.88;56.53;100278.41;10153955;29;20085;-76
2023/06/17 04:58:35;;;;;;;12.43;9.45;;;;;;;15.06;55.99;100281.13;10158371;29;20143;-75
2023/06/17 05:03:47;;;;;;;12.30;8.70;;;;;;;15.37;55.44;100281.53;10152974;29;20055;-74
2023/06/17 05:08:50;;;;;;;8.02;6.38;;;;;;;15.73;55.43;100292.28;10159157;29;20051;-75
2023/06/17 05:13:55;;;;;;;10.10;8.05;;;;;;;16.12;54.50;100292.63;10162104;29;20052;-76
2023/06/17 05:18:58;;;;;;;8.75;7.28;;;;;;;16.22;53.33;100292.50;10164158;28;20056;-76
2023/06/17 05:24:01;;;;;;;11.93;7.20;;;;;;;16.05;53.31;100296.19;10171330;29;20057;-75
2023/06/17 05:29:07;;;;;;;11.75;7.35;;;;;;;16.01;53.47;100297.50;10161611;29;20052;-76
2023/06/17 05:34:13;;;;;;;10.52;8.27;;;;;;;16.42;53.07;100303.13;10147003;29;20131;-76
2023/06/17 05:39:16;;;;;;;10.07;7.82;;;;;;;16.72;52.35;100302.50;10154098;29;20105;-76
2023/06/17 05:44:21;;;;;;;9.85;7.55;;;;;;;16.86;52.90;100306.44;10172474;28;20055;-77
2023/06/17 05:49:26;;;;;;;12.13;6.82;;;;;;;16.83;54.48;100312.19;10159551;29;20052;-75
2023/06/17 05:54:29;;;;;;;9.63;8.70;;;;;;;16.48;54.87;100303.31;10167559;29;20040;-74
2023/06/17 05:59:33;;;;;;;10.52;8.85;;;;;;;15.75;58.65;100305.66;10165047;29;20719;-75
2023/06/17 06:04:37;;;;;;;11.13;9.02;;;;;;;16.36;58.47;100299.19;10157580;29;20051;-75
2023/06/17 06:09:40;;;;;;;13.57;9.35;;;;;;;16.55;56.97;100315.19;10149850;29;20048;-76
2023/06/17 06:14:45;;;;;;;10.40;8.98;;;;;;;16.82;55.79;100315.94;10155594;29;20044;-75
2023/06/17 06:19:48;;;;;;;15.85;9.77;;;;;;;16.98;54.82;100315.13;10160558;29;20052;-76
2023/06/17 06:24:52;;;;;;;16.00;9.50;;;;;;;17.01;54.71;100307.50;10159625;29;20045;-75
2023/06/17 06:29:56;;;;;;;10.60;9.50;;;;;;;16.83;55.01;100309.50;10157223;29;20044;-75
2023/06/17 06:35:00;;;;;;;14.18;9.85;;;;;;;17.39;55.18;100313.28;10153824;29;20043;-76
2023/06/17 06:40:05;;;;;;;12.48;10.10;;;;;;;17.41;54.41;100313.09;10153622;29;20052;-76
2023/06/17 06:45:12;;;;;;;9.75;8.75;;;;;;;17.48;53.98;100322.28;10156246;29;20062;-76
2023/06/17 06:50:15;;;;;;;11.52;9.52;;;;;;;17.55;54.33;100322.44;10162776;29;20136;-76
2023/06/17 06:55:20;;;;;;;11.45;8.70;;;;;;;17.68;52.71;100322.75;10149298;29;20131;-76
2023/06/17 07:00:28;;;;;;;11.73;8.30;;;;;;;18.13;52.91;100324.06;10157193;29;20073;-76
2023/06/17 07:05:32;;;;;;;9.63;7.78;;;;;;;18.39;51.57;100320.19;10155186;29;20051;-76
2023/06/17 07:10:39;;;;;;;9.68;8.23;;;;;;;18.55;51.52;100315.53;10149144;29;20064;-76
2023/06/17 07:15:46;;;;;;;11.60;8.80;;;;;;;19.40;51.51;100316.50;10155130;29;20624;-76
2023/06/17 07:20:50;;;;;;;11.80;7.88;;;;;;;19.80;49.68;100320.75;10145139;29;20055;-75
2023/06/17 07:25:54;;;;;;;10.27;7.80;;;;;;;21.58;46.77;100323.03;10155226;29;20062;-76
2023/06/17 07:31:00;;;;;;;9.45;7.70;;;;;;;22.52;42.83;100330.00;10172057;28;20048;-76
2023/06/17 07:36:03;;;;;;;9.23;7.45;;;;;;;24.31;39.54;100324.63;10152647;29;20138;-76
2023/06/17 07:41:06;;;;;;;9.73;8.10;;;;;;;24.27;40.40;100325.25;10155360;29;20052;-74
2023/06/17 07:46:11;;;;;;;11.35;8.75;;;;;;;24.37;39.69;100330.31;10151065;29;20504;-76
2023/06/17 07:51:14;;;;;;;10.68;8.48;;;;;;;23.33;42.07;100326.41;10148601;29;20517;-76
2023/06/17 07:56:18;;;;;;;10.10;8.60;;;;;;;22.09;44.03;100327.44;10142909;29;21513;-75
2023/06/17 08:01:23;;;;;;;9.95;8.05;;;;;;;21.70;44.99;100331.56;10151860;29;20048;-75
2023/06/17 08:06:26;;;;;;;10.90;8.25;;;;;;;21.43;46.48;100322.31;10160373;29;20407;-75
2023/06/17 08:11:29;;;;;;;9.85;8.85;;;;;;;21.95;45.15;100321.03;10154703;29;20048;-76
2023/06/17 08:16:33;;;;;;;9.82;8.02;;;;;;;22.04;45.19;100318.97;10159680;29;20048;-76
2023/06/17 08:21:37;;;;;;;13.23;9.15;;;;;;;22.56;44.35;100323.06;10149931;29;20054;-75
2023/06/17 08:26:42;;;;;;;8.85;7.95;;;;;;;22.80;44.55;100318.09;10150955;29;20154;-75
2023/06/17 08:31:49;;;;;;;11.57;9.60;;;;;;;22.68;44.15;100310.47;10139405;29;20264;-76
2023/06/17 08:36:53;;;;;;;11.23;9.40;;;;;;;22.31;44.55;100304.38;10149792;29;20054;-73
2023/06/17 08:41:57;;;;;;;10.02;9.02;;;;;;;23.63;42.66;100307.66;10158233;29;20146;-73
2023/06/17 08:47:02;;;;;;;10.80;8.25;;;;;;;22.30;45.40;100310.09;10158018;29;20047;-72
2023/06/17 08:52:07;;;;;;;9.25;8.30;;;;;;;22.44;45.41;100314.59;10156742;29;20055;-73
2023/06/17 08:57:12;;;;;;;8.70;7.38;;;;;;;22.32;46.44;100318.91;10151782;29;20059;-75
2023/06/17 09:02:17;;;;;;;11.20;8.68;;;;;;;23.09;43.24;100304.03;10148931;29;20652;-76
2023/06/17 09:07:22;;;;;;;9.20;7.72;;;;;;;22.05;46.71;100305.13;10143206;29;20078;-76
2023/06/17 09:12:26;;;;;;;10.70;8.27;;;;;;;22.39;44.97;100308.00;10154763;28;20090;-76
2023/06/17 09:17:32;;;;;;;15.90;8.10;;;;;;;23.03;44.60;100293.88;10166608;29;20051;-77
2023/06/17 09:22:35;;;;;;;7.10;6.50;;;;;;;23.99;42.82;100287.97;10165856;29;20055;-77
2023/06/17 09:27:49;;;;;;;8.13;7.30;;;;;;;24.14;42.40;100303.38;10166496;29;20051;-78
2023/06/17 09:33:21;;;;;;;8.38;7.10;;;;;;;25.74;41.45;100287.59;10160614;29;20126;-77
2023/06/17 09:38:24;;;;;;;8.57;7.40;;;;;;;25.36;39.92;100295.97;10148915;29;20064;-74
2023/06/17 09:43:28;;;;;;;9.38;8.15;;;;;;;24.01;43.68;100293.28;10147889;29;20056;-76
2023/06/17 09:48:35;;;;;;;8.45;7.65;;;;;;;24.03;43.38;100292.00;10150617;29;20071;-78
2023/06/17 09:53:39;;;;;;;11.05;8.50;;;;;;;24.69;42.60;100287.31;10153002;29;20123;-76
2023/06/17 09:58:43;;;;;;;8.55;7.03;;;;;;;25.52;42.09;100283.56;10154207;29;20080;-78
2023/06/17 10:03:48;;;;;;;9.23;6.82;;;;;;;26.46;38.38;100274.09;10151514;29;20465;-75
2023/06/17 10:08:52;;;;;;;10.52;7.15;;;;;;;26.96;37.77;100270.25;10155588;29;20095;-78
2023/06/17 10:14:00;;;;;;;7.50;6.47;;;;;;;27.55;37.35;100270.34;10151043;29;20143;-78
2023/06/17 10:19:06;;;;;;;8.35;6.15;;;;;;;27.66;36.51;100269.50;10169110;29;20409;-77
2023/06/17 10:24:10;;;;;;;8.27;6.22;;;;;;;27.37;36.19;100274.88;10159596;29;20047;-77
2023/06/17 10:29:13;;;;;;;6.32;5.63;;;;;;;28.34;34.52;100272.69;10151524;28;20218;-78
2023/06/17 10:34:22;;;;;;;6.00;5.40;;;;;;;27.84;35.07;100263.88;10181596;29;20640;-77
2023/06/17 10:39:25;;;;;;;8.27;6.13;;;;;;;25.34;38.84;100270.59;10179923;29;20133;-78
2023/06/17 10:44:40;;;;;;;7.47;5.70;;;;;;;26.47;38.48;100272.19;10163764;29;20055;-77
2023/06/17 10:49:46;;;;;;;7.28;6.22;;;;;;;27.26;36.50;100250.91;10161663;29;20054;-79
2023/06/17 10:54:53;;;;;;;7.80;5.72;;;;;;;26.05;37.76;100264.63;10151909;29;20076;-78
2023/06/17 10:59:59;;;;;;;6.43;5.80;;;;;;;25.29;38.95;100265.81;10156956;29;21205;-76
2023/06/17 11:05:05;;;;;;;6.72;6.13;;;;;;;26.35;38.61;100261.09;10166069;29;20052;-75
2023/06/17 11:10:08;;;;;;;7.05;6.40;;;;;;;27.82;36.90;100245.88;10173598;28;20048;-79
2023/06/17 11:15:11;;;;;;;9.82;6.72;;;;;;;29.27;34.92;100257.59;10158391;29;20048;-79
2023/06/17 11:20:15;;;;;;;7.32;6.53;;;;;;;29.16;33.79;100244.69;10155241;29;20111;-78
2023/06/17 11:25:18;;;;;;;8.65;6.30;;;;;;;29.55;33.55;100255.81;10149567;29;20060;-79
2023/06/17 11:30:28;;;;;;;9.98;6.55;;;;;;;28.00;34.08;100250.41;10161698;29;20119;-79
2023/06/17 11:35:33;;;;;;;6.97;5.97;;;;;;;29.41;33.04;100233.19;10171784;29;20047;-79
2023/06/17 11:40:35;;;;;;;9.00;6.40;;;;;;;29.50;32.49;100239.94;10183191;28;20070;-78
2023/06/17 11:45:38;;;;;;;11.50;6.70;;;;;;;28.57;33.02;100253.28;10170042;29;20415;-79
2023/06/17 11:50:43;;;;;;;10.23;6.82;;;;;;;28.51;32.45;100237.66;10166907;28;20051;-79
2023/06/17 11:55:45;;;;;;;7.78;6.35;;;;;;;28.74;32.65;100238.66;10157406;29;20052;-77
2023/06/17 12:00:48;;;;;;;7.68;6.15;;;;;;;29.90;31.18;100235.31;10160276;29;20062;-79
2023/06/17 12:05:53;;;;;;;9.50;6.05;;;;;;;30.16;31.09;100217.09;10167317;29;20103;-77
2023/06/17 12:10:56;;;;;;;7.90;6.65;;;;;;;30.83;30.50;100218.69;10172142;29;20426;-78
2023/06/17 12:16:01;;;;;;;7.68;6.93;;;;;;;29.75;30.66;100219.31;10169490;29;20051;-78
2023/06/17 12:21:11;;;;;;;9.05;7.18;;;;;;;30.38;31.55;100215.13;10162708;29;20048;-78
2023/06/17 12:26:15;;;;;;;9.30;6.88;;;;;;;29.20;31.24;100212.66;10163152;29;20067;-78
2023/06/17 12:31:18;;;;;;;8.32;7.53;;;;;;;30.28;29.45;100212.28;10158754;29;20060;-78
2023/06/17 12:36:22;;;;;;;11.05;8.02;;;;;;;29.47;31.77;100211.97;10166753;29;20048;-79
2023/06/17 12:41:25;;;;;;;11.02;9.45;;;;;;;29.15;33.20;100205.13;10159157;29;20044;-80
2023/06/17 12:46:28;;;;;;;11.35;9.88;;;;;;;29.69;30.89;100200.97;10162388;29;20051;-80
2023/06/17 12:51:34;;;;;;;11.05;9.02;;;;;;;31.19;29.23;100186.56;10166975;29;20970;-79
2023/06/17 12:56:37;;;;;;;10.95;9.85;;;;;;;31.78;28.23;100179.97;10165169;29;20056;-78
2023/06/17 13:01:39;;;;;;;12.30;9.93;;;;;;;29.62;31.20;100181.78;10162643;29;20058;-79
2023/06/17 13:06:44;;;;;;;11.05;8.85;;;;;;;29.95;29.27;100174.44;10150519;29;20433;-76
2023/06/17 13:11:47;;;;;;;11.43;10.25;;;;;;;30.90;29.02;100166.59;10157942;28;20044;-77
2023/06/17 13:16:51;;;;;;;12.75;9.20;;;;;;;30.02;29.52;100167.59;10161839;28;20051;-77
2023/06/17 13:21:56;;;;;;;9.77;8.77;;;;;;;29.52;30.54;100174.16;10163306;29;21108;-77
2023/06/17 13:26:59;;;;;;;11.63;9.27;;;;;;;31.02;30.43;100156.16;10176511;28;20083;-78
2023/06/17 13:32:02;;;;;;;12.13;9.82;;;;;;;32.17;28.00;100151.81;10163831;29;20419;-77
2023/06/17 13:37:06;;;;;;;12.35;10.65;;;;;;;29.94;30.63;100153.38;10155226;28;20050;-78
2023/06/17 13:42:09;;;;;;;13.13;9.40;;;;;;;31.33;30.30;100154.44;10155971;28;20075;-77
2023/06/17 13:47:14;;;;;;;13.02;10.20;;;;;;;32.16;28.38;100147.34;10157478;29;20047;-77
2023/06/17 13:52:18;;;;;;;12.75;9.50;;;;;;;31.33;30.59;100148.91;10157405;29;20523;-77
2023/06/17 13:57:21;;;;;;;12.70;9.80;;;;;;;31.42;29.72;100152.00;10159853;29;20058;-76
2023/06/17 14:02:24;;;;;;;11.20;9.07;;;;;;;29.64;31.89;100151.91;10169508;28;20058;-77
2023/06/17 14:07:29;;;;;;;9.80;8.30;;;;;;;30.60;30.84;100151.34;10165320;28;20060;-77
2023/06/17 14:12:32;;;;;;;8.18;7.28;;;;;;;31.89;29.99;100144.75;10160917;29;20059;-78
2023/06/17 14:17:35;;;;;;;8.07;7.13;;;;;;;32.71;27.94;100134.66;10157824;29;20060;-77
2023/06/17 14:22:39;;;;;;;10.15;6.88;;;;;;;32.55;29.62;100130.19;10162113;29;20056;-76
2023/06/17 14:27:43;;;;;;;7.75;6.93;;;;;;;31.95;30.08;100135.31;10160914;29;20047;-75
2023/06/17 14:32:47;;;;;;;7.07;6.38;;;;;;;33.31;27.94;100127.38;10152424;29;20075;-78
2023/06/17 14:37:52;;;;;;;7.57;6.30;;;;;;;33.26;27.30;100134.91;10165515;28;20051;-77
2023/06/17 14:42:54;;;;;;;7.45;6.75;;;;;;;33.54;27.92;100117.59;10165617;29;20050;-78
2023/06/17 14:47:57;;;;;;;7.28;6.63;;;;;;;33.54;27.85;100120.38;10156102;29;20055;-77
2023/06/17 14:53:02;;;;;;;7.45;6.75;;;;;;;33.80;27.20;100116.66;10154945;29;20051;-77
2023/06/17 14:58:05;;;;;;;7.50;6.32;;;;;;;33.22;28.42;100117.97;10161611;28;20086;-77
2023/06/17 15:03:09;;;;;;;7.30;6.60;;;;;;;33.51;27.91;100109.78;10151865;29;20074;-76
2023/06/17 15:08:14;;;;;;;8.88;6.80;;;;;;;32.78;28.75;100112.16;10165524;29;20055;-77
2023/06/17 15:13:17;;;;;;;7.15;6.50;;;;;;;33.09;28.99;100108.22;10195519;28;20431;-76
2023/06/17 15:18:20;;;;;;;8.38;6.47;;;;;;;32.57;28.32;100114.91;10170682;29;20059;-78
2023/06/17 15:23:24;;;;;;;7.10;6.40;;;;;;;32.79;27.96;100109.09;10174688;29;20059;-78
2023/06/17 15:28:27;;;;;;;7.22;6.50;;;;;;;31.77;29.20;100111.69;10165300;28;20048;-76
2023/06/17 15:33:30;;;;;;;7.40;6.43;;;;;;;32.44;28.58;100104.34;10168692;29;20628;-77
2023/06/17 15:38:34;;;;;;;6.97;6.28;;;;;;;33.34;26.98;100114.84;10167612;29;21286;-78
2023/06/17 15:43:37;;;;;;;8.23;6.18;;;;;;;33.80;27.07;100111.09;10174527;29;20049;-76
2023/06/17 15:48:40;;;;;;;9.20;6.28;;;;;;;33.52;25.99;100113.41;10172484;29;20055;-77
2023/06/17 15:53:44;;;;;;;6.88;6.28;;;;;;;33.01;27.48;100107.94;10171561;29;20068;-75
2023/06/17 15:58:47;;;;;;;6.55;6.00;;;;;;;33.39;27.15;100111.22;10162750;29;20056;-76
2023/06/17 16:03:50;;;;;;;6.80;6.20;;;;;;;33.54;26.83;100111.16;10164268;29;20051;-76
2023/06/17 16:08:54;;;;;;;7.53;6.53;;;;;;;33.95;27.06;100111.81;10182450;29;20059;-77
2023/06/17 16:13:57;;;;;;;6.75;5.95;;;;;;;33.42;26.92;100114.28;10178204;29;20060;-78
2023/06/17 16:19:00;;;;;;;8.07;5.93;;;;;;;33.73;26.30;100108.59;10175361;29;20067;-77
2023/06/17 16:24:04;;;;;;;6.25;5.75;;;;;;;33.65;27.00;100110.03;10165117;29;20127;-78
2023/06/17 16:29:08;;;;;;;6.82;6.13;;;;;;;34.55;26.27;100103.38;10156183;29;20047;-78
2023/06/17 16:34:11;;;;;;;7.50;6.00;;;;;;;36.77;24.22;100097.53;10154514;29;20047;-78
2023/06/17 16:39:15;;;;;;;6.00;5.40;;;;;;;38.97;22.30;100090.75;10154820;29;20067;-77
2023/06/17 16:44:18;;;;;;;6.30;5.70;;;;;;;40.78;20.87;100093.38;10158606;29;20056;-77
2023/06/17 16:49:21;;;;;;;6.28;5.78;;;;;;;38.74;21.87;100092.75;10162677;28;20076;-78
2023/06/17 16:54:26;;;;;;;7.00;6.10;;;;;;;40.32;21.26;100089.31;10164580;29;20157;-79
2023/06/17 16:59:28;;;;;;;7.07;5.45;;;;;;;40.76;20.49;100092.91;10160109;29;20062;-78
2023/06/17 17:04:31;;;;;;;7.38;5.50;;;;;;;40.98;20.01;100077.81;10154970;29;20106;-78
2023/06/17 17:09:36;;;;;;;5.30;4.90;;;;;;;39.56;20.93;100084.06;10147992;29;20059;-78
2023/06/17 17:14:40;;;;;;;6.10;5.60;;;;;;;38.57;21.63;100087.88;10148147;29;20047;-77
2023/06/17 17:19:43;;;;;;;5.15;4.65;;;;;;;38.44;22.43;100094.34;10158259;29;20051;-77
2023/06/17 17:24:47;;;;;;;5.70;5.00;;;;;;;39.92;20.91;100080.19;10159726;29;20723;-76
2023/06/17 17:29:51;;;;;;;5.55;5.05;;;;;;;40.88;20.11;100078.13;10162295;29;20154;-77
2023/06/17 17:34:54;;;;;;;5.45;5.00;;;;;;;40.87;20.32;100088.56;10158925;29;20476;-77
2023/06/17 17:39:58;;;;;;;6.28;5.20;;;;;;;40.24;20.73;100087.34;10152140;29;20052;-76
2023/06/17 17:45:01;;;;;;;6.40;5.05;;;;;;;39.18;21.42;100088.22;10144887;29;20420;-77
2023/06/17 17:50:04;;;;;;;5.85;5.35;;;;;;;36.43;23.55;100087.50;10167604;28;20487;-77
2023/06/17 17:55:09;;;;;;;5.93;5.43;;;;;;;32.61;26.93;100096.56;10154740;29;20055;-79
2023/06/17 18:00:13;;;;;;;6.00;5.50;;;;;;;30.87;29.45;100104.19;10159343;29;20067;-76
2023/06/17 18:05:18;;;;;;;6.47;5.57;;;;;;;29.88;30.25;100107.38;10172761;29;20048;-73
2023/06/17 18:10:22;;;;;;;6.05;5.53;;;;;;;28.91;31.98;100101.31;10188013;29;20059;-73
2023/06/17 18:15:25;;;;;;;6.28;5.50;;;;;;;28.25;32.78;100109.31;10189134;29;20063;-73
2023/06/17 18:20:28;;;;;;;6.72;6.10;;;;;;;27.81;34.07;100111.72;10180952;29;20051;-73
2023/06/17 18:25:32;;;;;;;6.40;5.72;;;;;;;27.49;34.67;100112.19;10182008;29;20048;-73
2023/06/17 18:30:35;;;;;;;6.55;5.95;;;;;;;27.15;35.59;100111.09;10187570;29;20512;-73
2023/06/17 18:35:38;;;;;;;6.30;5.68;;;;;;;26.91;36.47;100116.63;10187431;29;20060;-73
2023/06/17 18:40:42;;;;;;;8.25;6.03;;;;;;;26.64;36.85;100116.22;10189848;29;20052;-75
2023/06/17 18:45:45;;;;;;;10.25;6.15;;;;;;;26.44;36.76;100115.69;10186599;29;20434;-75
2023/06/17 18:50:48;;;;;;;6.95;6.15;;;;;;;26.21;37.60;100120.03;10200443;29;20059;-74
2023/06/17 18:55:52;;;;;;;7.30;6.28;;;;;;;26.02;38.03;100121.97;10202212;29;20063;-75
2023/06/17 19:00:55;;;;;;;8.30;6.57;;;;;;;25.82;37.87;100121.41;10185961;29;20044;-74
2023/06/17 19:05:58;;;;;;;8.05;6.65;;;;;;;25.64;38.69;100127.75;10181819;29;20937;-74
2023/06/17 19:11:02;;;;;;;7.70;7.00;;;;;;;25.50;38.83;100127.06;10185842;29;20538;-75
2023/06/17 19:16:06;;;;;;;7.50;6.80;;;;;;;25.36;38.94;100131.84;10188822;29;20255;-74
2023/06/17 19:21:10;;;;;;;7.82;7.00;;;;;;;25.15;39.55;100138.66;10186523;29;20100;-74
2023/06/17 19:26:14;;;;;;;7.30;6.55;;;;;;;24.95;40.53;100138.78;10179919;29;20075;-74
2023/06/17 19:31:17;;;;;;;7.80;6.68;;;;;;;24.71;40.58;100142.38;10168309;29;20126;-75
2023/06/17 19:36:20;;;;;;;8.95;7.07;;;;;;;24.49;40.38;100137.28;10181347;29;20050;-75
2023/06/17 19:41:25;;;;;;;7.55;6.80;;;;;;;24.37;40.85;100151.91;10181161;29;20048;-74
2023/06/17 19:46:29;;;;;;;7.93;7.18;;;;;;;24.29;41.23;100153.00;10184490;29;20048;-74
2023/06/17 19:51:32;;;;;;;8.50;7.47;;;;;;;23.51;42.15;100150.38;10187441;29;20139;-74
2023/06/17 19:56:36;;;;;;;8.63;7.63;;;;;;;23.21;43.09;100157.16;10197449;29;20427;-74
2023/06/17 20:01:39;;;;;;;11.00;7.93;;;;;;;23.49;43.25;100158.78;10197156;29;20036;-73
2023/06/17 20:06:42;;;;;;;11.40;7.75;;;;;;;23.46;42.98;100155.66;10193950;29;20055;-74
2023/06/17 20:11:46;;;;;;;9.52;8.60;;;;;;;23.28;43.39;100153.56;10192798;29;20051;-75
2023/06/17 20:16:50;;;;;;;8.85;8.05;;;;;;;23.35;43.66;100159.88;10196430;29;20036;-73
2023/06/17 20:21:53;;;;;;;10.95;8.98;;;;;;;23.32;43.55;100158.41;10195086;29;20044;-73
2023/06/17 20:26:57;;;;;;;9.55;8.55;;;;;;;23.29;43.98;100160.75;10190100;29;20210;-73
2023/06/17 20:32:01;;;;;;;10.52;9.40;;;;;;;23.17;43.99;100157.78;10184955;29;20507;-74
2023/06/17 20:37:05;;;;;;;10.68;9.13;;;;;;;23.02;44.52;100162.66;10177355;29;20506;-73
2023/06/17 20:42:09;;;;;;;11.20;9.30;;;;;;;22.86;44.82;100167.47;10184036;29;20048;-73
2023/06/17 20:47:12;;;;;;;12.00;10.02;;;;;;;22.65;45.76;100168.50;10190640;29;20055;-73
2023/06/17 20:52:15;;;;;;;12.13;9.60;;;;;;;22.45;45.86;100168.50;10202607;29;20050;-73
2023/06/17 20:57:19;;;;;;;10.10;8.70;;;;;;;22.17;46.55;100170.50;10203698;29;20051;-73
2023/06/17 21:02:22;;;;;;;14.80;9.32;;;;;;;21.92;46.85;100167.47;10198318;29;20543;-76
2023/06/17 21:07:25;;;;;;;9.85;8.95;;;;;;;21.75;47.55;100172.44;10187820;29;20072;-77
2023/06/17 21:12:31;;;;;;;12.05;9.57;;;;;;;21.86;47.42;100172.72;10191257;29;20048;-74
2023/06/17 21:17:36;;;;;;;13.13;9.77;;;;;;;21.84;47.49;100171.22;10195285;29;20047;-76
2023/06/17 21:22:39;;;;;;;12.10;10.43;;;;;;;21.72;47.79;100176.41;10189551;29;20095;-76
2023/06/17 21:27:43;;;;;;;13.48;11.07;;;;;;;21.61;48.22;100174.22;10198044;29;20039;-77
2023/06/17 21:32:46;;;;;;;12.35;11.07;;;;;;;21.64;48.07;100182.88;10206039;29;20280;-75
2023/06/17 21:37:48;;;;;;;14.35;10.82;;;;;;;21.60;48.42;100167.06;10202542;29;20059;-76
2023/06/17 21:42:53;;;;;;;14.63;11.48;;;;;;;21.56;48.98;100168.53;10178327;29;20048;-76
2023/06/17 21:47:55;;;;;;;11.43;10.23;;;;;;;21.45;48.92;100169.94;10182542;29;20340;-76
2023/06/17 21:52:58;;;;;;;13.52;11.23;;;;;;;21.28;49.53;100171.28;10188076;29;20050;-76
2023/06/17 21:58:02;;;;;;;14.27;10.98;;;;;;;21.18;50.02;100174.38;10192453;29;20420;-76
2023/06/17 22:03:05;;;;;;;16.52;11.63;;;;;;;21.20;50.23;100178.59;10192894;29;20048;-76
2023/06/17 22:08:08;;;;;;;13.10;10.90;;;;;;;21.15;50.29;100175.63;10189561;29;20067;-76
2023/06/17 22:13:12;;;;;;;12.60;11.02;;;;;;;21.01;51.13;100173.81;10201821;29;20055;-76
2023/06/17 22:18:16;;;;;;;12.50;11.10;;;;;;;20.88;51.34;100187.34;10187953;29;20052;-76
2023/06/17 22:23:19;;;;;;;12.93;11.43;;;;;;;20.81;51.90;100183.69;10178739;29;20130;-76
2023/06/17 22:28:24;;;;;;;13.45;10.80;;;;;;;20.65;51.94;100185.69;10184620;29;20048;-76
2023/06/17 22:33:27;;;;;;;12.32;11.13;;;;;;;20.53;52.79;100177.16;10191207;29;20055;-76
2023/06/17 22:38:29;;;;;;;12.77;10.65;;;;;;;20.59;52.53;100174.69;10191251;29;20040;-76
2023/06/17 22:43:33;;;;;;;14.27;11.43;;;;;;;20.37;52.77;100176.56;10206247;29;20086;-75
2023/06/17 22:48:36;;;;;;;14.30;11.43;;;;;;;20.22;53.41;100180.16;10194911;29;20104;-76
2023/06/17 22:53:39;;;;;;;17.13;12.57;;;;;;;20.26;53.45;100183.34;10187677;29;20095;-76
2023/06/17 22:58:44;;;;;;;14.95;12.10;;;;;;;20.14;53.76;100193.91;10176767;29;20126;-76
2023/06/17 23:03:47;;;;;;;15.63;12.05;;;;;;;19.90;54.44;100189.63;10182974;29;20551;-76
2023/06/17 23:08:50;;;;;;;17.63;13.30;;;;;;;19.59;55.13;100192.56;10192050;29;20495;-77
2023/06/17 23:13:54;;;;;;;14.68;12.43;;;;;;;19.73;55.43;100190.88;10197741;29;20419;-75